Time;durP1;ratioP1;P1;durP2;ratioP2;P2;SDS_P1;SDS_P2;PMS_P1;PMS_P2;Temp;Humidity;BMP_temperature;BMP_pressure;BME280_temperature;BME280_humidity;BME280_pressure;Samples;Min_cycle;Max_cycle;Signal;HPM_P1;HPM_P2
2023/12/28 00:02:11;;;;;;;4.63;2.15;;;1.60;99.90;;;;;;5023077;28;20052;-61
2023/12/28 00:04:38;;;;;;;6.00;1.92;;;1.50;99.90;;;;;;5024974;28;20072;-60
2023/12/28 00:07:04;;;;;;;5.20;1.80;;;1.40;99.90;;;;;;5021970;28;20057;-61
2023/12/28 00:09:31;;;;;;;4.53;2.20;;;1.20;99.90;;;;;;5025537;28;20038;-61
2023/12/28 00:11:59;;;;;;;5.03;2.00;;;1.20;99.90;;;;;;5020539;28;20126;-60
2023/12/28 00:14:25;;;;;;;;;;;1.10;99.90;;;;;;5022093;28;20233;-61
2023/12/28 00:16:52;;;;;;;7.35;2.47;;;1.10;99.90;;;;;;5024988;28;19925;-61
2023/12/28 00:19:20;;;;;;;3.97;1.92;;;1.10;99.90;;;;;;5030264;28;20087;-58
2023/12/28 00:21:48;;;;;;;5.47;2.67;;;1.10;99.90;;;;;;5032208;28;20056;-60
2023/12/28 00:24:16;;;;;;;4.43;2.17;;;1.00;99.90;;;;;;5024725;28;20069;-61
2023/12/28 00:26:43;;;;;;;6.70;2.00;;;0.90;99.90;;;;;;5031799;28;20402;-60
2023/12/28 00:29:09;;;;;;;5.68;1.95;;;0.90;99.90;;;;;;5024574;28;20120;-61
2023/12/28 00:31:36;;;;;;;6.25;2.45;;;0.80;99.90;;;;;;5021773;28;20041;-60
2023/12/28 00:34:03;;;;;;;8.73;2.72;;;0.80;99.90;;;;;;5005501;28;20514;-60
2023/12/28 00:36:30;;;;;;;4.80;2.50;;;0.80;99.90;;;;;;5009838;28;20499;-60
2023/12/28 00:38:57;;;;;;;7.20;3.38;;;0.70;99.90;;;;;;5020260;28;20487;-60
2023/12/28 00:41:24;;;;;;;;;;;0.70;99.90;;;;;;5008025;28;20052;-59
2023/12/28 00:45:25;;;;;;;5.65;3.00;;;0.80;99.90;;;;;;5073173;28;20405;-60
2023/12/28 00:47:55;;;;;;;7.38;3.17;;;0.80;99.90;;;;;;5058352;28;20489;-60
2023/12/28 00:50:22;;;;;;;6.40;3.03;;;0.90;99.90;;;;;;5059104;28;20072;-58
2023/12/28 00:52:49;;;;;;;4.97;2.65;;;0.80;99.90;;;;;;5062075;28;20424;-60
2023/12/28 00:55:16;;;;;;;7.05;2.50;;;0.70;99.90;;;;;;5062330;28;20071;-59
2023/12/28 00:57:43;;;;;;;6.57;3.00;;;0.70;99.90;;;;;;5048909;28;20044;-58
2023/12/28 01:00:10;;;;;;;9.23;3.60;;;0.60;99.90;;;;;;5058850;28;20147;-60
2023/12/28 01:02:37;;;;;;;;;;;0.60;99.90;;;;;;5064431;28;20045;-61
2023/12/28 01:05:04;;;;;;;8.45;3.38;;;0.50;99.90;;;;;;5075215;28;20494;-60
2023/12/28 01:07:31;;;;;;;7.40;2.95;;;0.60;99.90;;;;;;5059678;28;20371;-58
2023/12/28 01:09:58;;;;;;;7.20;3.00;;;0.60;99.90;;;;;;5059542;28;20501;-57
2023/12/28 01:12:25;;;;;;;7.47;3.10;;;0.50;99.90;;;;;;5052870;28;20045;-58
2023/12/28 01:14:52;;;;;;;;;;;0.30;99.90;;;;;;5056071;28;20048;-58
2023/12/28 01:17:19;;;;;;;10.13;3.95;;;0.30;99.90;;;;;;5066277;28;20011;-59
2023/12/28 01:19:46;;;;;;;;;;;0.30;99.90;;;;;;5058577;28;20557;-60
2023/12/28 01:22:13;;;;;;;9.93;3.80;;;0.30;99.90;;;;;;5057534;28;19927;-60
2023/12/28 01:24:41;;;;;;;8.68;4.10;;;0.30;99.90;;;;;;5054585;28;20128;-60
2023/12/28 01:27:08;;;;;;;10.45;4.68;;;0.30;99.90;;;;;;5060237;28;20041;-60
2023/12/28 01:29:35;;;;;;;10.02;4.53;;;0.30;99.90;;;;;;5066706;28;20068;-59
2023/12/28 01:32:03;;;;;;;15.50;5.25;;;0.30;99.90;;;;;;5051012;28;20033;-60
2023/12/28 01:34:30;;;;;;;11.77;5.60;;;0.40;99.90;;;;;;5054253;28;20049;-59
2023/12/28 01:36:57;;;;;;;12.68;4.95;;;0.50;99.90;;;;;;5055654;28;20099;-59
2023/12/28 01:39:24;;;;;;;10.13;4.90;;;0.70;99.90;;;;;;5053725;28;20049;-60
2023/12/28 01:41:51;;;;;;;7.90;4.55;;;0.80;99.90;;;;;;5059134;28;20045;-60
2023/12/28 01:44:18;;;;;;;12.15;4.97;;;0.80;99.90;;;;;;5065152;28;20045;-60
2023/12/28 01:46:46;;;;;;;11.32;4.90;;;0.80;99.90;;;;;;5065218;28;20452;-60
2023/12/28 01:49:13;;;;;;;11.88;5.13;;;0.80;99.90;;;;;;5047602;28;20030;-59
2023/12/28 01:51:41;;;;;;;7.57;3.25;;;0.80;99.90;;;;;;5063794;28;20123;-60
2023/12/28 01:54:08;;;;;;;8.77;3.33;;;0.70;99.90;;;;;;5065569;28;20401;-59
2023/12/28 01:56:35;;;;;;;8.82;3.72;;;0.60;99.90;;;;;;5037320;28;20041;-58
2023/12/28 01:59:02;;;;;;;9.70;3.85;;;0.40;99.90;;;;;;5043535;28;20057;-59
2023/12/28 02:01:29;;;;;;;9.82;4.05;;;0.30;99.90;;;;;;5051121;28;20049;-57
2023/12/28 02:03:56;;;;;;;7.25;3.35;;;0.30;99.90;;;;;;5053819;28;20041;-59
2023/12/28 02:06:24;;;;;;;7.20;3.97;;;0.20;99.90;;;;;;5051758;28;20482;-59
2023/12/28 02:08:51;;;;;;;10.93;4.60;;;0.20;99.90;;;;;;5062627;28;20429;-62
2023/12/28 02:11:19;;;;;;;13.70;5.05;;;0.20;99.90;;;;;;5051342;28;20044;-59
2023/12/28 02:13:46;;;;;;;12.02;4.93;;;0.20;99.90;;;;;;5053399;28;20474;-59
2023/12/28 02:16:18;;;;;;;11.23;4.47;;;0.30;99.90;;;;;;5052208;28;20048;-59
2023/12/28 02:18:51;;;;;;;10.10;4.53;;;0.30;99.90;;;;;;5046547;28;20052;-60
2023/12/28 02:21:20;;;;;;;7.93;3.50;;;0.30;99.90;;;;;;5052323;28;20049;-60
2023/12/28 02:23:48;;;;;;;7.82;3.88;;;0.30;99.90;;;;;;5068100;28;20049;-59
2023/12/28 02:26:18;;;;;;;9.95;3.85;;;0.20;99.90;;;;;;5040565;28;20121;-59
2023/12/28 02:28:46;;;;;;;8.45;4.13;;;0.20;99.90;;;;;;5041018;28;20087;-59
2023/12/28 02:31:25;;;;;;;7.32;3.85;;;0.20;99.90;;;;;;5040290;28;20568;-59
2023/12/28 02:34:04;;;;;;;5.25;3.55;;;0.20;99.90;;;;;;5049100;28;20081;-57
2023/12/28 02:36:33;;;;;;;9.20;3.95;;;0.20;99.90;;;;;;5047340;28;20056;-59
2023/12/28 02:39:04;;;;;;;10.82;3.83;;;0.20;99.90;;;;;;5052330;28;20489;-58
2023/12/28 02:41:31;;;;;;;9.65;4.05;;;0.20;99.90;;;;;;5053487;28;20512;-59
2023/12/28 02:44:00;;;;;;;8.63;3.97;;;0.20;99.90;;;;;;5044407;28;20140;-59
2023/12/28 02:46:27;;;;;;;11.68;4.05;;;0.20;99.90;;;;;;5051231;28;20716;-59
2023/12/28 02:48:57;;;;;;;7.07;3.90;;;0.20;99.90;;;;;;5049496;28;20037;-59
2023/12/28 02:51:25;;;;;;;7.32;3.78;;;0.10;99.90;;;;;;5037615;28;20029;-60
2023/12/28 02:53:51;;;;;;;;;;;0.20;99.90;;;;;;5038859;28;20060;-59
2023/12/28 02:56:18;;;;;;;10.38;3.97;;;0.20;99.90;;;;;;5051615;28;20435;-60
2023/12/28 02:58:45;;;;;;;4.90;2.35;;;0.20;99.90;;;;;;5031182;28;20569;-57
2023/12/28 03:01:12;;;;;;;8.65;3.95;;;0.20;99.90;;;;;;5040759;28;20494;-59
2023/12/28 03:03:39;;;;;;;6.65;3.20;;;0.30;99.90;;;;;;5046545;28;20136;-60
2023/12/28 03:06:06;;;;;;;5.70;2.38;;;0.30;99.90;;;;;;5051944;28;20053;-58
2023/12/28 03:08:33;;;;;;;4.28;2.08;;;0.30;99.90;;;;;;5041765;28;20046;-56
2023/12/28 03:10:59;;;;;;;5.85;2.72;;;0.20;99.90;;;;;;5049671;28;20059;-60
2023/12/28 03:13:26;;;;;;;5.15;2.10;;;0.10;99.90;;;;;;5044366;28;20131;-59
2023/12/28 03:15:53;;;;;;;5.90;2.47;;;0.00;99.90;;;;;;5050570;28;20539;-60
2023/12/28 03:18:20;;;;;;;4.93;2.20;;;-0.10;99.90;;;;;;5051263;28;20049;-59
2023/12/28 03:20:48;;;;;;;6.22;2.38;;;-0.20;99.90;;;;;;5051420;28;20135;-58
2023/12/28 03:23:14;;;;;;;8.85;3.00;;;-0.40;99.90;;;;;;5051088;28;20084;-60
2023/12/28 03:25:41;;;;;;;7.85;3.38;;;-0.40;99.90;;;;;;5044009;28;20476;-59
2023/12/28 03:28:08;;;;;;;5.47;3.00;;;-0.30;99.90;;;;;;5051953;28;20049;-59
2023/12/28 03:30:35;;;;;;;6.90;2.53;;;-0.30;99.90;;;;;;5045783;28;20037;-59
2023/12/28 03:33:02;;;;;;;4.95;2.35;;;-0.30;99.90;;;;;;5052345;28;20037;-59
2023/12/28 03:35:29;;;;;;;3.75;2.40;;;-0.40;99.90;;;;;;5051078;28;20049;-58
2023/12/28 03:37:55;;;;;;;5.78;2.35;;;-0.40;99.90;;;;;;5050216;28;20044;-59
2023/12/28 03:40:23;;;;;;;6.85;2.58;;;-0.50;99.90;;;;;;5050106;28;20053;-60
2023/12/28 03:42:50;;;;;;;3.28;2.17;;;-0.50;99.90;;;;;;5050836;28;20044;-59
2023/12/28 03:45:17;;;;;;;4.90;2.30;;;-0.60;99.90;;;;;;5051643;28;20052;-58
2023/12/28 03:47:44;;;;;;;4.50;1.98;;;-0.60;99.90;;;;;;5051037;28;20044;-59
2023/12/28 03:50:11;;;;;;;5.55;2.45;;;-0.60;99.90;;;;;;5050940;28;20033;-58
2023/12/28 03:52:38;;;;;;;8.63;2.42;;;-0.70;99.90;;;;;;5050755;28;20391;-58
2023/12/28 03:55:05;;;;;;;3.80;2.25;;;-0.70;99.90;;;;;;5050472;28;20052;-56
2023/12/28 03:57:32;;;;;;;6.60;2.20;;;-0.70;99.90;;;;;;5046279;28;20140;-59
2023/12/28 03:59:59;;;;;;;4.05;2.20;;;-0.70;99.90;;;;;;5061854;28;20045;-59
2023/12/28 04:02:30;;;;;;;6.72;2.65;;;-0.70;99.90;;;;;;5049548;28;20375;-59
2023/12/28 04:04:58;;;;;;;3.45;1.98;;;-0.60;99.90;;;;;;5066809;28;20055;-59
2023/12/28 04:07:25;;;;;;;4.70;2.25;;;-0.70;99.90;;;;;;5050931;28;20040;-59
2023/12/28 04:09:52;;;;;;;4.95;2.28;;;-0.60;99.90;;;;;;5049405;28;20152;-56
2023/12/28 04:12:19;;;;;;;7.53;2.30;;;-0.60;99.90;;;;;;5066877;28;20065;-58
2023/12/28 04:14:46;;;;;;;4.97;2.15;;;-0.60;99.90;;;;;;5051809;28;20401;-58
2023/12/28 04:17:13;;;;;;;4.03;1.83;;;-0.60;99.90;;;;;;5050257;28;21460;-59
2023/12/28 04:19:39;;;;;;;6.32;2.33;;;-0.60;99.90;;;;;;5050191;28;20055;-59
2023/12/28 04:22:06;;;;;;;3.72;1.95;;;-0.60;99.90;;;;;;5051203;28;20037;-60
2023/12/28 04:24:34;;;;;;;;;;;-0.60;99.90;;;;;;5046769;28;20474;-60
2023/12/28 04:27:00;;;;;;;5.53;2.10;;;-0.70;99.90;;;;;;5040728;28;19970;-59
2023/12/28 04:29:27;;;;;;;4.65;2.72;;;-0.70;99.90;;;;;;5050148;28;20036;-59
2023/12/28 04:31:55;;;;;;;6.03;2.28;;;-0.80;99.90;;;;;;5053478;28;20498;-59
2023/12/28 04:34:21;;;;;;;4.53;2.30;;;-0.80;99.90;;;;;;5045680;28;20047;-60
2023/12/28 04:36:48;;;;;;;5.53;3.08;;;-0.80;99.90;;;;;;5058466;28;20057;-59
2023/12/28 04:39:15;;;;;;;6.55;3.25;;;-0.80;99.90;;;;;;5049426;28;20056;-60
2023/12/28 04:41:42;;;;;;;7.03;2.45;;;-0.80;99.90;;;;;;5049707;28;20045;-59
2023/12/28 04:44:09;;;;;;;5.85;2.65;;;-0.70;99.90;;;;;;5050872;28;20061;-59
2023/12/28 04:46:42;;;;;;;5.63;2.00;;;-0.70;99.90;;;;;;5046144;28;20496;-59
2023/12/28 04:49:10;;;;;;;4.93;2.55;;;-0.80;99.90;;;;;;5044132;28;20041;-58
2023/12/28 04:51:45;;;;;;;6.38;2.30;;;-0.80;99.90;;;;;;5038200;28;20072;-60
2023/12/28 04:54:12;;;;;;;4.25;2.08;;;-0.80;99.90;;;;;;5034130;28;20567;-58
2023/12/28 04:56:38;;;;;;;5.72;2.92;;;-0.80;99.90;;;;;;5041238;28;20095;-59
2023/12/28 04:59:05;;;;;;;5.15;2.45;;;-0.80;99.90;;;;;;5034998;28;20158;-60
2023/12/28 05:01:32;;;;;;;6.03;2.88;;;-0.90;99.90;;;;;;5042913;28;20041;-58
2023/12/28 05:04:00;;;;;;;3.33;1.90;;;-0.90;99.90;;;;;;5033019;28;20049;-59
2023/12/28 05:06:29;;;;;;;3.05;1.75;;;-1.00;99.90;;;;;;5043109;28;20041;-59
2023/12/28 05:08:56;;;;;;;7.15;4.63;;;-1.10;99.90;;;;;;5041402;28;20073;-58
2023/12/28 05:11:23;;;;;;;2.80;1.63;;;-1.00;99.90;;;;;;5042525;28;20043;-59
2023/12/28 05:13:49;;;;;;;4.00;1.80;;;-1.00;99.90;;;;;;5044769;28;20041;-59
2023/12/28 05:16:16;;;;;;;5.40;2.40;;;-0.90;99.90;;;;;;5042162;28;20076;-56
2023/12/28 05:18:43;;;;;;;6.03;2.70;;;-0.90;99.90;;;;;;5048917;28;20033;-60
2023/12/28 05:21:11;;;;;;;4.22;2.42;;;-1.00;99.90;;;;;;5039986;28;20098;-59
2023/12/28 05:23:38;;;;;;;5.10;2.28;;;-1.00;99.90;;;;;;5043355;28;20041;-60
2023/12/28 05:26:06;;;;;;;5.60;2.05;;;-0.90;99.90;;;;;;5042087;28;20048;-59
2023/12/28 05:28:33;;;;;;;4.97;2.20;;;-0.90;99.90;;;;;;5050652;28;20048;-60
2023/12/28 05:30:59;;;;;;;3.53;2.15;;;-1.00;99.90;;;;;;5051123;28;20065;-58
2023/12/28 05:33:26;;;;;;;5.35;2.65;;;-1.10;99.90;;;;;;5054585;28;20102;-56
2023/12/28 05:35:53;;;;;;;4.97;2.65;;;-1.10;99.90;;;;;;5054115;28;20044;-57
2023/12/28 05:38:20;;;;;;;5.28;2.90;;;-1.10;99.90;;;;;;5054171;28;20045;-59
2023/12/28 05:40:47;;;;;;;8.40;3.25;;;-1.10;99.90;;;;;;5053144;28;20053;-60
2023/12/28 05:43:13;;;;;;;7.03;3.90;;;-1.10;99.90;;;;;;5054171;28;20068;-58
2023/12/28 05:45:40;;;;;;;6.78;3.50;;;-1.00;99.90;;;;;;5054197;28;20040;-60
2023/12/28 05:48:07;;;;;;;8.70;4.72;;;-1.00;99.90;;;;;;5054025;28;20115;-59
2023/12/28 05:50:34;;;;;;;16.77;5.35;;;-0.90;99.90;;;;;;5050125;28;20102;-60
2023/12/28 05:53:02;;;;;;;20.27;6.32;;;-0.90;99.90;;;;;;5054385;28;20036;-57
2023/12/28 05:55:29;;;;;;;16.38;6.20;;;-0.90;99.90;;;;;;5049422;28;20065;-59
2023/12/28 05:57:56;;;;;;;17.42;5.55;;;-0.90;99.90;;;;;;5053857;28;20040;-56
2023/12/28 06:00:23;;;;;;;7.40;3.40;;;-0.90;99.90;;;;;;5045201;28;20452;-62
2023/12/28 06:02:51;;;;;;;5.75;2.80;;;-1.00;99.90;;;;;;5040284;28;20086;-61
2023/12/28 06:05:18;;;;;;;8.25;4.10;;;-1.10;99.90;;;;;;5052374;28;20048;-60
2023/12/28 06:07:45;;;;;;;12.70;6.40;;;-1.10;99.90;;;;;;5053781;28;20033;-58
2023/12/28 06:10:12;;;;;;;13.48;6.07;;;-1.10;99.90;;;;;;5045011;28;20076;-59
2023/12/28 06:12:38;;;;;;;14.95;5.82;;;-1.10;99.90;;;;;;5053936;28;20045;-59
2023/12/28 06:15:06;;;;;;;12.52;6.10;;;-1.00;99.90;;;;;;5050255;28;20068;-60
2023/12/28 06:17:33;;;;;;;15.95;6.88;;;-0.90;99.90;;;;;;5042953;28;20048;-61
2023/12/28 06:20:01;;;;;;;9.43;5.35;;;-0.80;99.90;;;;;;5042566;28;20037;-61
2023/12/28 06:22:28;;;;;;;9.95;4.18;;;-0.80;99.90;;;;;;5052633;28;20063;-61
2023/12/28 06:24:55;;;;;;;11.82;4.50;;;-0.80;99.90;;;;;;5051152;28;20033;-61
2023/12/28 06:27:25;;;;;;;16.85;6.15;;;-0.90;99.90;;;;;;5042928;28;20053;-58
2023/12/28 06:29:52;;;;;;;19.35;8.10;;;-0.90;99.90;;;;;;5049318;28;20045;-61
2023/12/28 06:32:19;;;;;;;10.65;4.70;;;-0.80;99.90;;;;;;5038099;28;20051;-60
2023/12/28 06:34:49;;;;;;;16.48;6.57;;;-0.80;99.90;;;;;;5048085;28;20569;-58
2023/12/28 06:37:16;;;;;;;14.98;6.40;;;-0.80;99.90;;;;;;5039874;28;20053;-61
2023/12/28 06:39:42;;;;;;;16.70;6.75;;;-0.80;99.90;;;;;;5043373;28;20044;-59
2023/12/28 06:42:09;;;;;;;14.32;6.55;;;-0.80;99.90;;;;;;5043450;28;20039;-61
2023/12/28 06:44:36;;;;;;;12.45;5.78;;;-0.80;99.90;;;;;;5052504;28;20040;-61
2023/12/28 06:47:03;;;;;;;19.90;8.30;;;-0.80;99.90;;;;;;5051533;28;20035;-60
2023/12/28 06:49:30;;;;;;;27.45;11.00;;;-0.80;99.90;;;;;;5049647;28;20041;-61
2023/12/28 06:51:57;;;;;;;28.52;12.30;;;-0.80;99.90;;;;;;5037574;28;20038;-61
2023/12/28 06:54:24;;;;;;;24.50;9.43;;;-0.80;99.90;;;;;;5033816;28;20042;-61
2023/12/28 06:56:51;;;;;;;13.73;7.25;;;-0.80;99.90;;;;;;5045180;28;20465;-59
2023/12/28 06:59:18;;;;;;;13.05;7.38;;;-0.80;99.90;;;;;;5032607;28;20464;-61
2023/12/28 07:01:45;;;;;;;28.00;9.52;;;-0.80;99.90;;;;;;5041375;28;20075;-62
2023/12/28 07:04:12;;;;;;;20.08;8.00;;;-0.80;99.90;;;;;;5033041;28;20076;-62
2023/12/28 07:06:39;;;;;;;13.13;6.60;;;-0.70;99.90;;;;;;5033110;28;20132;-61
2023/12/28 07:09:06;;;;;;;11.35;5.05;;;-0.70;99.90;;;;;;5032342;28;20520;-61
2023/12/28 07:11:33;;;;;;;8.50;3.80;;;-0.70;99.90;;;;;;5032681;28;20045;-61
2023/12/28 07:14:00;;;;;;;8.93;4.18;;;-0.70;99.90;;;;;;5035588;28;20041;-61
2023/12/28 07:16:26;;;;;;;9.25;4.70;;;-0.80;99.90;;;;;;5034779;28;20050;-61
2023/12/28 07:18:53;;;;;;;9.32;5.00;;;-0.80;99.90;;;;;;5038475;28;20038;-61
2023/12/28 07:21:20;;;;;;;9.75;5.15;;;-0.80;99.90;;;;;;5041999;28;20045;-58
2023/12/28 07:23:49;;;;;;;20.90;8.93;;;-0.90;99.90;;;;;;5039568;28;20037;-61
2023/12/28 07:26:16;;;;;;;17.83;7.78;;;-0.80;99.90;;;;;;5032043;28;20107;-60
2023/12/28 07:28:44;;;;;;;17.10;7.75;;;-0.70;99.90;;;;;;5032423;28;20053;-60
2023/12/28 07:31:21;;;;;;;14.25;7.57;;;-0.60;99.90;;;;;;5041863;28;20116;-59
2023/12/28 07:33:48;;;;;;;13.97;7.03;;;-0.50;99.90;;;;;;5040611;28;20060;-61
2023/12/28 07:36:15;;;;;;;10.32;5.47;;;-0.50;99.90;;;;;;5042107;28;20127;-62
2023/12/28 07:38:42;;;;;;;10.10;4.53;;;-0.50;99.90;;;;;;5031956;28;20045;-60
2023/12/28 07:41:09;;;;;;;13.50;7.50;;;-0.40;99.90;;;;;;5040422;28;20044;-61
2023/12/28 07:43:36;;;;;;;13.30;7.72;;;-0.40;99.90;;;;;;5046262;28;20059;-61
2023/12/28 07:46:03;;;;;;;15.88;9.93;;;-0.40;99.90;;;;;;5052320;28;20037;-61
2023/12/28 07:48:30;;;;;;;14.98;8.95;;;-0.40;99.90;;;;;;5048056;28;20539;-61
2023/12/28 07:50:58;;;;;;;11.90;7.38;;;-0.40;99.90;;;;;;5051567;28;20049;-61
2023/12/28 07:53:24;;;;;;;13.30;7.18;;;-0.40;99.90;;;;;;5049704;28;20386;-61
2023/12/28 07:55:51;;;;;;;15.82;6.85;;;-0.30;99.90;;;;;;5041216;28;20049;-58
2023/12/28 07:58:18;;;;;;;14.05;6.80;;;-0.30;99.90;;;;;;5051594;28;20201;-59
2023/12/28 08:00:45;;;;;;;26.25;13.40;;;-0.20;99.90;;;;;;5046535;28;20034;-60
2023/12/28 08:03:15;;;;;;;21.20;9.25;;;-0.20;99.90;;;;;;5036438;28;20055;-59
2023/12/28 08:05:42;;;;;;;23.35;12.77;;;-0.10;99.90;;;;;;5039540;28;20036;-61
2023/12/28 08:08:09;;;;;;;24.88;11.07;;;0.00;99.90;;;;;;5040356;28;20044;-59
2023/12/28 08:10:35;;;;;;;34.08;14.43;;;0.00;99.90;;;;;;5038908;28;20064;-59
2023/12/28 08:13:03;;;;;;;19.60;8.43;;;0.00;99.90;;;;;;5039586;28;20513;-58
2023/12/28 08:15:29;;;;;;;12.52;6.47;;;0.00;99.90;;;;;;5037514;28;20037;-61
2023/12/28 08:17:56;;;;;;;16.63;8.15;;;0.00;99.90;;;;;;5038941;28;20036;-58
2023/12/28 08:20:23;;;;;;;;;;;0.00;99.90;;;;;;5044361;28;20156;-61
2023/12/28 08:22:50;;;;;;;19.05;8.90;;;0.00;99.90;;;;;;5038851;28;19927;-62
2023/12/28 08:25:36;;;;;;;18.90;7.90;;;-0.10;99.90;;;;;;5038154;28;20042;-61
2023/12/28 08:28:03;;;;;;;13.15;5.80;;;-0.10;99.90;;;;;;5036963;28;20482;-61
2023/12/28 08:30:30;;;;;;;15.82;6.70;;;-0.10;99.90;;;;;;5038208;28;20217;-61
2023/12/28 08:32:57;;;;;;;13.23;6.35;;;-0.10;99.90;;;;;;5040090;28;20037;-58
2023/12/28 08:35:23;;;;;;;15.15;6.57;;;0.10;99.90;;;;;;5039344;28;20126;-61
2023/12/28 08:37:50;;;;;;;15.52;8.00;;;0.10;99.90;;;;;;5040337;28;20033;-60
2023/12/28 08:40:17;;;;;;;16.30;7.72;;;0.10;99.90;;;;;;5038845;28;20041;-61
2023/12/28 08:42:45;;;;;;;19.48;8.85;;;0.00;99.90;;;;;;5036955;28;20745;-60
2023/12/28 08:45:12;;;;;;;20.58;9.85;;;0.00;99.90;;;;;;5031796;28;20124;-61
2023/12/28 08:47:38;;;;;;;21.20;11.13;;;0.00;99.90;;;;;;5036329;28;20059;-61
2023/12/28 08:50:05;;;;;;;18.90;10.13;;;0.10;99.90;;;;;;5051172;28;20061;-60
2023/12/28 08:52:32;;;;;;;;;;;0.30;99.90;;;;;;5051122;28;20041;-61
2023/12/28 08:55:00;;;;;;;18.08;8.98;;;0.50;99.90;;;;;;5044987;28;19925;-60
2023/12/28 08:57:28;;;;;;;19.45;7.70;;;0.70;99.90;;;;;;5047917;28;20060;-60
2023/12/28 09:00:09;;;;;;;19.73;7.45;;;0.80;99.90;;;;;;5045645;28;20124;-60
2023/12/28 09:02:36;;;;;;;19.27;8.52;;;1.00;99.90;;;;;;5044487;28;20041;-59
2023/12/28 09:05:03;;;;;;;17.73;9.18;;;1.20;99.90;;;;;;5044136;28;20390;-61
2023/12/28 09:07:30;;;;;;;22.45;9.32;;;1.30;99.90;;;;;;5040188;28;20092;-60
2023/12/28 09:09:56;;;;;;;18.60;7.93;;;1.50;99.90;;;;;;5046135;28;20143;-61
2023/12/28 09:12:23;;;;;;;14.27;6.70;;;1.60;99.90;;;;;;5043515;28;20124;-60
2023/12/28 09:14:52;;;;;;;16.35;6.55;;;1.60;99.90;;;;;;5038565;28;20045;-59
2023/12/28 09:17:22;;;;;;;17.23;7.05;;;1.70;99.90;;;;;;5042830;28;20123;-59
2023/12/28 09:19:49;;;;;;;17.10;7.55;;;1.80;99.90;;;;;;5041012;28;20529;-57
2023/12/28 09:22:16;;;;;;;17.77;7.20;;;1.80;99.90;;;;;;5043362;28;20402;-59
2023/12/28 09:24:43;;;;;;;16.42;7.22;;;2.00;99.90;;;;;;5042212;28;20112;-58
2023/12/28 09:27:10;;;;;;;11.80;6.22;;;2.10;99.90;;;;;;5043305;28;20040;-59
2023/12/28 09:29:37;;;;;;;10.30;4.88;;;2.20;99.90;;;;;;5034547;28;20133;-61
2023/12/28 09:32:04;;;;;;;14.55;6.55;;;2.40;99.90;;;;;;5044890;28;20379;-60
2023/12/28 09:34:31;;;;;;;10.45;5.82;;;2.50;99.90;;;;;;5045538;28;20136;-59
2023/12/28 09:36:58;;;;;;;10.52;5.10;;;2.60;99.90;;;;;;5040574;28;20026;-59
2023/12/28 09:39:25;;;;;;;10.07;5.00;;;2.60;99.90;;;;;;5042394;28;20052;-60
2023/12/28 09:42:00;;;;;;;14.55;5.63;;;2.70;99.90;;;;;;5049407;28;20048;-57
2023/12/28 09:44:30;;;;;;;14.90;5.95;;;2.70;99.90;;;;;;5040558;28;20064;-60
2023/12/28 09:46:57;;;;;;;12.73;5.95;;;2.80;99.90;;;;;;5047201;28;20130;-58
2023/12/28 09:49:24;;;;;;;17.73;7.18;;;2.90;99.90;;;;;;5043465;28;20043;-59
2023/12/28 09:51:51;;;;;;;13.23;5.82;;;2.90;99.90;;;;;;5044560;28;20036;-60
2023/12/28 09:54:18;;;;;;;16.20;6.60;;;3.00;99.90;;;;;;5044322;28;20103;-60
2023/12/28 09:56:45;;;;;;;15.88;7.07;;;3.10;99.90;;;;;;5043025;28;20092;-61
2023/12/28 09:59:15;;;;;;;16.00;7.43;;;3.20;99.90;;;;;;5044166;28;20053;-60
2023/12/28 10:01:42;;;;;;;12.77;6.20;;;3.40;99.90;;;;;;5044765;28;20044;-58
2023/12/28 10:04:10;;;;;;;18.00;7.63;;;3.60;99.90;;;;;;5041459;28;20044;-58
2023/12/28 10:06:37;;;;;;;13.45;6.65;;;3.70;99.90;;;;;;5044142;28;20065;-60
2023/12/28 10:09:07;;;;;;;14.48;6.20;;;3.90;99.90;;;;;;5042471;28;20153;-60
2023/12/28 10:11:34;;;;;;;10.68;5.38;;;4.00;99.90;;;;;;5043245;28;20055;-61
2023/12/28 10:14:02;;;;;;;10.65;3.95;;;4.10;99.90;;;;;;5043166;28;20040;-60
2023/12/28 10:16:28;;;;;;;11.20;4.25;;;4.20;99.90;;;;;;5043789;28;20033;-56
2023/12/28 10:18:59;;;;;;;7.43;3.70;;;4.30;99.90;;;;;;5043024;28;20045;-56
2023/12/28 10:21:26;;;;;;;11.20;4.78;;;4.30;99.90;;;;;;5045254;28;20112;-57
2023/12/28 10:23:53;;;;;;;9.48;4.97;;;4.20;99.90;;;;;;5042933;28;20060;-59
2023/12/28 10:26:21;;;;;;;8.73;4.43;;;4.10;99.90;;;;;;5044014;28;20491;-56
2023/12/28 10:28:50;;;;;;;8.98;4.55;;;4.20;99.90;;;;;;5042458;28;20053;-56
2023/12/28 10:31:16;;;;;;;9.05;4.07;;;4.30;99.90;;;;;;5043391;28;20053;-55
2023/12/28 10:33:45;;;;;;;7.70;3.47;;;4.40;99.90;;;;;;5041743;28;20045;-55
2023/12/28 10:36:16;;;;;;;6.95;3.70;;;4.30;99.90;;;;;;5042704;28;20045;-56
2023/12/28 10:38:45;;;;;;;9.60;3.78;;;4.50;99.90;;;;;;5044372;28;20375;-58
2023/12/28 10:41:13;;;;;;;7.43;3.50;;;4.60;99.90;;;;;;5042658;28;20035;-55
2023/12/28 10:43:46;;;;;;;8.43;4.15;;;4.60;99.90;;;;;;5042652;28;20043;-57
2023/12/28 10:46:27;;;;;;;5.97;3.25;;;4.70;99.90;;;;;;5042920;28;20049;-56
2023/12/28 10:48:59;;;;;;;8.25;3.97;;;4.90;99.90;;;;;;5039069;28;20086;-60
2023/12/28 10:51:27;;;;;;;9.30;3.45;;;4.90;99.90;;;;;;5039448;28;20045;-58
2023/12/28 10:54:06;;;;;;;6.78;3.33;;;5.10;99.90;;;;;;5041969;28;20453;-58
2023/12/28 10:56:46;;;;;;;11.75;4.28;;;5.40;99.90;;;;;;5038112;28;20050;-58
2023/12/28 10:59:22;;;;;;;12.15;5.22;;;5.40;99.90;;;;;;5042629;28;20060;-59
2023/12/28 11:01:54;;;;;;;16.13;7.95;;;5.50;99.90;;;;;;5037590;28;20116;-61
2023/12/28 11:04:39;;;;;;;25.67;10.15;;;5.50;99.90;;;;;;5034617;28;20162;-56
2023/12/28 11:07:08;;;;;;;7.82;3.58;;;5.40;99.90;;;;;;5040845;28;20446;-56
2023/12/28 11:09:37;;;;;;;8.13;3.92;;;5.30;99.90;;;;;;5035344;28;20041;-61
2023/12/28 11:12:08;;;;;;;29.83;9.40;;;5.30;99.90;;;;;;5039176;28;20528;-57
2023/12/28 11:14:35;;;;;;;10.93;5.43;;;5.20;99.90;;;;;;5041470;28;20052;-61
2023/12/28 11:17:03;;;;;;;7.55;3.50;;;5.10;99.90;;;;;;5047524;28;20052;-60
2023/12/28 11:19:31;;;;;;;6.43;3.30;;;5.00;99.90;;;;;;5045266;28;20087;-61
2023/12/28 11:21:59;;;;;;;8.00;3.53;;;5.10;99.90;;;;;;5039779;28;20071;-60
2023/12/28 11:24:29;;;;;;;14.88;4.45;;;5.20;99.90;;;;;;5041061;28;20111;-60
2023/12/28 11:26:56;;;;;;;6.43;2.90;;;5.30;99.90;;;;;;5040839;28;20073;-59
2023/12/28 11:29:24;;;;;;;7.18;3.45;;;5.40;99.90;;;;;;5039239;28;20053;-58
2023/12/28 11:31:51;;;;;;;6.60;2.80;;;5.50;99.90;;;;;;5040867;28;20041;-58
2023/12/28 11:34:18;;;;;;;10.38;3.70;;;5.40;99.90;;;;;;5045742;28;20106;-60
2023/12/28 11:36:51;;;;;;;6.60;3.25;;;5.40;99.90;;;;;;5040129;28;20079;-60
2023/12/28 11:39:36;;;;;;;11.25;4.47;;;5.40;99.90;;;;;;5036387;28;20478;-60
2023/12/28 11:42:04;;;;;;;7.60;4.07;;;5.40;99.90;;;;;;5038961;28;20049;-61
2023/12/28 11:44:37;;;;;;;8.35;3.75;;;5.50;99.90;;;;;;5039699;28;20063;-59
2023/12/28 11:47:17;;;;;;;9.85;4.22;;;5.50;99.90;;;;;;5047784;28;20041;-60
2023/12/28 11:49:47;;;;;;;7.63;3.88;;;5.50;99.90;;;;;;5042531;28;20124;-61
2023/12/28 11:52:25;;;;;;;9.55;3.95;;;5.60;99.90;;;;;;5043175;28;20383;-61
2023/12/28 11:54:52;;;;;;;7.03;3.33;;;5.80;99.90;;;;;;5041641;28;20041;-61
2023/12/28 11:57:20;;;;;;;11.02;3.60;;;5.80;99.90;;;;;;5043695;28;20056;-61
2023/12/28 11:59:52;;;;;;;5.15;3.05;;;5.90;99.90;;;;;;5051494;28;20625;-61
2023/12/28 12:02:20;;;;;;;8.60;3.50;;;6.00;99.90;;;;;;5044808;28;20048;-60
2023/12/28 12:04:47;;;;;;;9.02;4.20;;;6.00;99.90;;;;;;5049288;28;20039;-61
2023/12/28 12:07:14;;;;;;;;;;;6.10;99.90;;;;;;5033424;28;20037;-61
2023/12/28 12:09:41;;;;;;;8.70;3.50;;;6.10;99.90;;;;;;5038046;28;20290;-60
2023/12/28 12:12:09;;;;;;;6.85;3.38;;;6.20;99.90;;;;;;5046086;28;20037;-60
2023/12/28 12:14:36;;;;;;;5.88;2.90;;;6.10;99.90;;;;;;5035701;28;20037;-60
2023/12/28 12:17:03;;;;;;;5.40;3.03;;;6.00;99.90;;;;;;5047318;28;20116;-60
2023/12/28 12:19:30;;;;;;;8.57;3.28;;;6.00;99.90;;;;;;5043047;28;20048;-60
2023/12/28 12:21:57;;;;;;;9.30;3.75;;;6.20;99.90;;;;;;5049730;28;20084;-60
2023/12/28 12:24:24;;;;;;;8.50;3.65;;;6.40;99.90;;;;;;5039016;28;20112;-58
2023/12/28 12:26:52;;;;;;;9.93;4.10;;;6.70;99.90;;;;;;5044168;28;20037;-60
2023/12/28 12:29:19;;;;;;;8.07;3.22;;;6.70;99.90;;;;;;5042578;28;20128;-60
2023/12/28 12:31:54;;;;;;;13.48;3.92;;;6.70;99.90;;;;;;5041201;28;20128;-60
2023/12/28 12:34:21;;;;;;;14.10;5.10;;;6.80;99.90;;;;;;5043818;28;20481;-60
2023/12/28 12:36:52;;;;;;;12.55;6.93;;;6.80;99.90;;;;;;5043077;28;20385;-61
2023/12/28 12:39:19;;;;;;;13.13;6.20;;;6.90;99.90;;;;;;5041065;28;20044;-60
2023/12/28 12:41:49;;;;;;;10.85;4.80;;;7.00;99.90;;;;;;5045040;28;20389;-61
2023/12/28 12:44:18;;;;;;;10.02;4.75;;;7.00;99.90;;;;;;5038192;28;20139;-58
2023/12/28 12:46:45;;;;;;;10.68;4.85;;;7.00;99.90;;;;;;5039644;28;20061;-61
2023/12/28 12:49:12;;;;;;;9.05;4.85;;;7.10;99.90;;;;;;5055788;28;20048;-61
2023/12/28 12:51:40;;;;;;;11.98;5.28;;;7.10;99.90;;;;;;5039519;28;20041;-61
2023/12/28 12:54:09;;;;;;;16.67;7.30;;;7.20;99.90;;;;;;5039475;28;20548;-61
2023/12/28 12:56:35;;;;;;;7.95;4.68;;;7.20;99.90;;;;;;5040094;28;20049;-61